Time;durP1;ratioP1;P1;durP2;ratioP2;P2;SDS_P1;SDS_P2;PMS_P1;PMS_P2;Temp;Humidity;BMP_temperature;BMP_pressure;BME280_temperature;BME280_humidity;BME280_pressure;Samples;Min_cycle;Max_cycle;Signal;HPM_P1;HPM_P2
2021/08/07 00:01:00;;;;;;;2.15;1.35;;;20.40;76.90;;;;;;1490544;39;20065;-59
2021/08/07 00:02:21;;;;;;;1.52;1.10;;;20.30;76.90;;;;;;1489143;39;20121;-59
2021/08/07 00:03:42;;;;;;;1.52;1.10;;;20.30;76.80;;;;;;1490148;39;20027;-59
2021/08/07 00:05:04;;;;;;;1.48;0.98;;;20.30;76.70;;;;;;1490265;39;20124;-58
2021/08/07 00:06:25;;;;;;;1.88;0.98;;;20.30;76.50;;;;;;1491865;39;20128;-58
2021/08/07 00:07:45;;;;;;;1.15;1.05;;;20.30;76.40;;;;;;1490580;39;20024;-56
2021/08/07 00:09:06;;;;;;;0.95;0.95;;;20.30;76.50;;;;;;1489917;39;20047;-58
2021/08/07 00:10:27;;;;;;;0.80;0.80;;;20.30;76.30;;;;;;1488962;39;20032;-58
2021/08/07 00:11:48;;;;;;;1.65;1.00;;;20.30;76.20;;;;;;1489465;39;20009;-57
2021/08/07 00:13:09;;;;;;;2.13;0.85;;;20.30;76.20;;;;;;1490311;39;20028;-58
2021/08/07 00:14:30;;;;;;;1.30;1.20;;;20.30;76.30;;;;;;1490340;39;20036;-57
2021/08/07 00:15:51;;;;;;;1.00;1.00;;;20.30;76.30;;;;;;1490917;39;20108;-58
2021/08/07 00:17:12;;;;;;;1.10;1.02;;;20.20;76.30;;;;;;1491925;39;20074;-59
2021/08/07 00:18:34;;;;;;;1.15;1.05;;;20.20;76.40;;;;;;1491357;39;20034;-59
2021/08/07 00:19:54;;;;;;;1.63;1.10;;;20.20;76.40;;;;;;1489853;39;20040;-58
2021/08/07 00:21:16;;;;;;;0.90;0.90;;;20.20;76.30;;;;;;1489786;39;20085;-58
2021/08/07 00:22:37;;;;;;;1.20;1.00;;;20.20;76.30;;;;;;1491501;39;20089;-56
2021/08/07 00:23:58;;;;;;;1.55;0.90;;;20.20;76.30;;;;;;1490702;39;20031;-57
2021/08/07 00:25:19;;;;;;;1.63;0.90;;;20.20;76.40;;;;;;1490092;39;20024;-58
2021/08/07 00:26:40;;;;;;;1.20;1.02;;;20.10;76.40;;;;;;1490643;39;20071;-56
2021/08/07 00:28:01;;;;;;;1.08;0.98;;;20.20;76.60;;;;;;1491268;39;20035;-58
2021/08/07 00:29:22;;;;;;;1.33;1.10;;;20.10;76.60;;;;;;1489107;39;20064;-58
2021/08/07 00:30:43;;;;;;;1.75;1.00;;;20.10;76.60;;;;;;1488872;39;20024;-59
2021/08/07 00:32:04;;;;;;;0.93;0.90;;;20.10;76.50;;;;;;1490077;39;20400;-59
2021/08/07 00:33:25;;;;;;;2.35;1.00;;;20.10;76.40;;;;;;1490919;39;20380;-58
2021/08/07 00:34:46;;;;;;;1.95;0.95;;;20.10;76.40;;;;;;1488896;39;20020;-59
2021/08/07 00:36:07;;;;;;;1.10;0.98;;;20.10;76.40;;;;;;1491567;39;20034;-58
2021/08/07 00:37:28;;;;;;;1.55;0.90;;;20.10;76.40;;;;;;1493558;39;20055;-56
2021/08/07 00:38:49;;;;;;;1.38;1.10;;;20.10;76.40;;;;;;1488627;39;20032;-58
2021/08/07 00:40:10;;;;;;;1.00;1.00;;;20.10;76.60;;;;;;1491543;39;20087;-58
2021/08/07 00:41:31;;;;;;;1.67;1.08;;;20.10;76.70;;;;;;1487602;39;20436;-58
2021/08/07 00:42:52;;;;;;;1.88;1.10;;;20.10;76.70;;;;;;1490645;39;20030;-58
2021/08/07 00:44:13;;;;;;;2.45;1.00;;;20.10;76.70;;;;;;1492075;39;20086;-59
2021/08/07 00:45:34;;;;;;;1.35;0.90;;;20.10;76.70;;;;;;1491635;39;20030;-58
2021/08/07 00:46:55;;;;;;;1.02;0.93;;;20.10;76.40;;;;;;1490975;39;20715;-57
2021/08/07 00:48:16;;;;;;;1.77;1.10;;;20.10;76.30;;;;;;1490215;39;20410;-57
2021/08/07 00:49:37;;;;;;;1.10;1.00;;;20.10;76.40;;;;;;1489139;39;20027;-57
2021/08/07 00:50:58;;;;;;;2.10;0.90;;;20.00;76.40;;;;;;1489863;39;20028;-59
2021/08/07 00:52:19;;;;;;;2.35;1.10;;;20.00;76.30;;;;;;1490686;39;20023;-58
2021/08/07 00:53:40;;;;;;;2.42;1.13;;;20.00;76.20;;;;;;1488450;39;20384;-58
2021/08/07 00:55:03;;;;;;;1.65;0.90;;;20.00;76.20;;;;;;1489069;39;20102;-58
2021/08/07 00:56:24;;;;;;;1.05;0.80;;;20.00;76.30;;;;;;1490589;39;20272;-59
2021/08/07 00:57:45;;;;;;;1.55;0.90;;;20.00;76.30;;;;;;1490993;39;20064;-59
2021/08/07 00:59:07;;;;;;;2.30;0.80;;;20.00;76.10;;;;;;1489256;39;20127;-59
2021/08/07 01:00:28;;;;;;;0.80;0.80;;;20.00;76.20;;;;;;1489213;39;20040;-59
2021/08/07 01:02:04;;;;;;;2.58;0.68;;;20.00;76.20;;;;;;1491720;39;20031;-60
2021/08/07 01:03:33;;;;;;;1.60;0.85;;;19.90;76.20;;;;;;1487724;39;20032;-59
2021/08/07 01:05:06;;;;;;;1.42;0.75;;;20.00;76.00;;;;;;1486464;39;20138;-58
2021/08/07 01:06:43;;;;;;;0.73;0.70;;;19.90;75.90;;;;;;1490831;39;20027;-59
2021/08/07 01:08:20;;;;;;;1.95;0.60;;;19.90;75.70;;;;;;1489953;39;20031;-59
2021/08/07 01:10:02;;;;;;;1.75;0.70;;;19.90;76.10;;;;;;1488129;39;20054;-59
2021/08/07 01:11:31;;;;;;;0.95;0.60;;;19.90;75.70;;;;;;1489676;39;20074;-58
2021/08/07 01:13:00;;;;;;;2.45;1.00;;;19.90;75.70;;;;;;1491090;39;20108;-57
2021/08/07 01:14:28;;;;;;;1.17;0.95;;;19.90;75.70;;;;;;1490914;39;20036;-58
2021/08/07 01:16:16;;;;;;;2.83;0.90;;;19.90;75.50;;;;;;1488952;39;20108;-58
2021/08/07 01:17:40;;;;;;;1.50;0.80;;;19.80;76.00;;;;;;1491722;39;20027;-58
2021/08/07 01:19:02;;;;;;;7.25;1.13;;;19.80;75.60;;;;;;1488761;39;20064;-58
2021/08/07 01:20:35;;;;;;;0.80;0.80;;;19.80;75.60;;;;;;1487451;39;20175;-59
2021/08/07 01:21:59;;;;;;;1.42;0.88;;;19.80;75.90;;;;;;1487562;39;20036;-59
2021/08/07 01:23:48;;;;;;;2.78;0.95;;;19.80;75.50;;;;;;1485276;40;20044;-59
2021/08/07 01:25:10;;;;;;;2.65;1.00;;;19.70;76.10;;;;;;1490260;39;20026;-58
2021/08/07 01:26:45;;;;;;;2.35;0.90;;;19.70;75.50;;;;;;1490505;39;20054;-59
2021/08/07 01:28:07;;;;;;;1.17;0.90;;;19.70;76.00;;;;;;1491072;39;20030;-59
2021/08/07 01:29:29;;;;;;;0.95;0.68;;;19.70;75.60;;;;;;1490571;39;20038;-58
2021/08/07 01:30:52;;;;;;;2.75;1.20;;;19.70;75.80;;;;;;1490616;39;20031;-59
2021/08/07 01:32:13;;;;;;;1.45;0.90;;;19.70;75.70;;;;;;1489963;39;20547;-59
2021/08/07 01:33:34;;;;;;;1.55;0.73;;;19.60;75.60;;;;;;1490827;39;20411;-59
2021/08/07 01:34:57;;;;;;;0.65;0.65;;;19.60;75.60;;;;;;1489081;39;20655;-59
2021/08/07 01:36:18;;;;;;;1.08;0.70;;;19.60;75.80;;;;;;1489614;39;20040;-59
2021/08/07 01:37:40;;;;;;;2.45;0.70;;;19.60;75.90;;;;;;1491071;39;20018;-58
2021/08/07 01:39:01;;;;;;;0.95;0.82;;;19.60;76.00;;;;;;1490662;39;20573;-58
2021/08/07 01:40:22;;;;;;;0.68;0.68;;;19.60;76.10;;;;;;1490012;39;20016;-58
2021/08/07 01:41:43;;;;;;;0.70;0.70;;;19.60;76.10;;;;;;1489872;39;20039;-59
2021/08/07 01:43:05;;;;;;;1.80;1.00;;;19.60;76.30;;;;;;1490747;39;20031;-58
2021/08/07 01:44:26;;;;;;;1.30;0.88;;;19.50;76.40;;;;;;1491264;39;20435;-59
2021/08/07 01:45:47;;;;;;;1.23;0.70;;;19.60;76.30;;;;;;1489062;39;20020;-58
2021/08/07 01:47:42;;;;;;;1.05;0.98;;;19.50;76.40;;;;;;1489535;39;20125;-58
2021/08/07 01:49:14;;;;;;;2.47;0.90;;;19.50;76.90;;;;;;1490750;39;20023;-59
2021/08/07 01:50:58;;;;;;;0.80;0.80;;;19.50;76.40;;;;;;1489047;39;20031;-59
2021/08/07 01:52:26;;;;;;;1.13;0.80;;;19.50;76.60;;;;;;1483333;40;20041;-58
2021/08/07 01:53:49;;;;;;;0.75;0.70;;;19.50;76.00;;;;;;1488484;39;20092;-59
2021/08/07 01:55:16;;;;;;;2.40;1.20;;;19.50;75.90;;;;;;1488904;39;20291;-59
2021/08/07 01:56:43;;;;;;;2.08;1.20;;;19.50;76.00;;;;;;1490064;39;20020;-59
2021/08/07 01:58:12;;;;;;;1.65;0.80;;;19.50;76.10;;;;;;1487879;39;20080;-59
2021/08/07 01:59:34;;;;;;;1.95;0.82;;;19.50;75.90;;;;;;1490999;39;20048;-58
2021/08/07 02:00:57;;;;;;;1.83;1.05;;;19.40;75.70;;;;;;1490172;39;20043;-57
2021/08/07 02:02:19;;;;;;;0.80;0.80;;;19.40;75.80;;;;;;1491155;39;20135;-59
2021/08/07 02:03:40;;;;;;;1.08;0.80;;;19.40;75.80;;;;;;1489495;39;20026;-58
2021/08/07 02:05:02;;;;;;;1.75;0.73;;;19.40;75.80;;;;;;1489384;39;20378;-59
2021/08/07 02:06:23;;;;;;;0.90;0.80;;;19.40;75.70;;;;;;1490067;39;20487;-58
2021/08/07 02:07:47;;;;;;;1.70;0.95;;;19.40;75.70;;;;;;1491799;39;20030;-58
2021/08/07 02:09:09;;;;;;;4.25;1.33;;;19.30;75.70;;;;;;1493224;39;20035;-59
2021/08/07 02:10:30;;;;;;;1.83;0.90;;;19.30;75.60;;;;;;1490059;39;20350;-58
2021/08/07 02:11:53;;;;;;;3.40;0.95;;;19.30;75.70;;;;;;1489227;39;20025;-58
2021/08/07 02:13:16;;;;;;;1.38;1.27;;;19.30;75.70;;;;;;1490171;39;20035;-59
2021/08/07 02:14:40;;;;;;;1.45;1.00;;;19.30;75.80;;;;;;1494124;39;20048;-58
2021/08/07 02:16:02;;;;;;;1.23;0.98;;;19.30;75.90;;;;;;1491019;39;20028;-58
2021/08/07 02:17:24;;;;;;;0.90;0.90;;;19.30;75.90;;;;;;1488679;39;20615;-58
2021/08/07 02:18:46;;;;;;;1.55;1.00;;;19.30;75.90;;;;;;1488201;39;20035;-60
2021/08/07 02:20:08;;;;;;;1.35;1.20;;;19.30;75.80;;;;;;1488423;39;20123;-59
2021/08/07 02:21:29;;;;;;;4.13;1.20;;;19.30;75.80;;;;;;1490740;39;20036;-58
2021/08/07 02:22:52;;;;;;;0.80;0.80;;;19.20;75.70;;;;;;1490889;39;20335;-58
2021/08/07 02:24:13;;;;;;;0.90;0.90;;;19.20;75.90;;;;;;1488611;39;20063;-58
2021/08/07 02:25:34;;;;;;;1.48;1.00;;;19.30;76.00;;;;;;1489796;39;20067;-59
2021/08/07 02:26:56;;;;;;;2.53;1.25;;;19.20;76.00;;;;;;1489937;39;20097;-57
2021/08/07 02:28:19;;;;;;;0.80;0.80;;;19.20;76.00;;;;;;1490918;39;20044;-58
2021/08/07 02:29:41;;;;;;;1.60;1.00;;;19.20;76.00;;;;;;1489969;39;20020;-59
2021/08/07 02:31:03;;;;;;;1.52;0.88;;;19.20;75.90;;;;;;1490787;39;20020;-58
2021/08/07 02:32:25;;;;;;;2.33;1.20;;;19.20;75.90;;;;;;1491113;39;20036;-58
2021/08/07 02:33:46;;;;;;;1.48;0.98;;;19.10;75.70;;;;;;1489506;39;20441;-58
2021/08/07 02:35:10;;;;;;;1.63;0.93;;;19.10;75.70;;;;;;1487062;39;20040;-59
2021/08/07 02:36:31;;;;;;;2.42;1.08;;;19.20;76.60;;;;;;1489220;39;20363;-58
2021/08/07 02:37:53;;;;;;;1.15;1.02;;;19.10;75.80;;;;;;1491693;39;20052;-58
2021/08/07 02:39:15;;;;;;;1.77;1.02;;;19.10;75.90;;;;;;1490646;39;20047;-59
2021/08/07 02:40:36;;;;;;;1.75;1.10;;;19.10;75.90;;;;;;1488585;39;20020;-58
2021/08/07 02:41:57;;;;;;;2.70;1.10;;;19.10;76.00;;;;;;1491562;39;20039;-58
2021/08/07 02:43:19;;;;;;;2.42;1.00;;;19.10;76.80;;;;;;1491876;39;20031;-58
2021/08/07 02:44:41;;;;;;;1.10;1.00;;;19.10;76.20;;;;;;1489477;39;20327;-56
2021/08/07 02:46:02;;;;;;;2.92;1.30;;;19.10;76.30;;;;;;1489749;39;20429;-59
2021/08/07 02:47:24;;;;;;;1.02;1.00;;;19.00;76.10;;;;;;1491715;39;20040;-58
2021/08/07 02:48:46;;;;;;;2.55;1.40;;;19.00;76.30;;;;;;1488353;39;20602;-58
2021/08/07 02:50:07;;;;;;;2.42;1.17;;;19.10;76.40;;;;;;1489397;39;20144;-58
2021/08/07 02:51:28;;;;;;;1.20;1.08;;;19.00;76.30;;;;;;1489561;39;20550;-59
2021/08/07 02:52:49;;;;;;;2.08;0.98;;;19.00;76.20;;;;;;1489133;39;20031;-58
2021/08/07 02:54:10;;;;;;;1.88;1.00;;;19.00;76.10;;;;;;1488738;39;20336;-58
2021/08/07 02:55:31;;;;;;;1.95;1.40;;;19.00;76.00;;;;;;1492727;39;20275;-59
2021/08/07 02:56:52;;;;;;;2.67;1.17;;;19.00;76.20;;;;;;1488217;39;20032;-58
2021/08/07 02:58:13;;;;;;;5.18;1.02;;;19.00;76.40;;;;;;1486474;40;20092;-58
2021/08/07 02:59:34;;;;;;;5.18;1.40;;;19.00;76.50;;;;;;1487974;39;20032;-59
2021/08/07 03:00:55;;;;;;;1.17;1.10;;;19.00;76.50;;;;;;1488955;39;20121;-58
2021/08/07 03:02:16;;;;;;;2.35;1.15;;;19.00;76.40;;;;;;1491903;39;20335;-58
2021/08/07 03:03:37;;;;;;;2.05;1.33;;;19.00;76.40;;;;;;1489739;39;20417;-59
2021/08/07 03:04:58;;;;;;;1.65;1.20;;;19.00;76.40;;;;;;1490605;39;20024;-57
2021/08/07 03:06:19;;;;;;;1.45;1.02;;;19.00;76.40;;;;;;1488223;39;20040;-59
2021/08/07 03:07:40;;;;;;;1.52;0.90;;;19.10;76.50;;;;;;1490669;39;20023;-58
2021/08/07 03:09:02;;;;;;;1.30;1.20;;;19.00;76.30;;;;;;1490880;39;20044;-59
2021/08/07 03:10:24;;;;;;;2.42;1.20;;;19.10;76.30;;;;;;1490418;39;20608;-59
2021/08/07 03:11:45;;;;;;;1.92;0.95;;;19.00;76.30;;;;;;1490977;39;20020;-59
2021/08/07 03:13:06;;;;;;;2.85;1.00;;;19.00;76.20;;;;;;1490579;39;20349;-58
2021/08/07 03:14:27;;;;;;;9.02;0.95;;;19.00;76.20;;;;;;1490277;39;20252;-59
2021/08/07 03:15:48;;;;;;;2.08;1.00;;;19.00;76.20;;;;;;1489196;39;20031;-59
2021/08/07 03:17:09;;;;;;;2.72;1.15;;;19.10;76.40;;;;;;1492329;39;20403;-59
2021/08/07 03:18:30;;;;;;;1.65;1.27;;;19.00;76.40;;;;;;1487522;39;20285;-58
2021/08/07 03:19:51;;;;;;;5.65;1.48;;;19.00;76.30;;;;;;1487858;39;20020;-59
2021/08/07 03:21:12;;;;;;;2.03;1.10;;;19.00;76.90;;;;;;1490116;39;20128;-58
2021/08/07 03:22:33;;;;;;;1.95;1.10;;;19.00;76.20;;;;;;1490721;39;20028;-59
2021/08/07 03:23:53;;;;;;;2.45;1.20;;;19.00;76.20;;;;;;1488957;39;20032;-59
2021/08/07 03:25:14;;;;;;;3.75;1.10;;;19.00;76.20;;;;;;1490156;39;20199;-59
2021/08/07 03:26:35;;;;;;;1.00;1.00;;;19.00;76.30;;;;;;1488403;39;20024;-58
2021/08/07 03:27:57;;;;;;;1.33;1.02;;;19.00;76.30;;;;;;1492732;39;20043;-59
2021/08/07 03:29:18;;;;;;;1.45;1.05;;;19.00;76.40;;;;;;1491246;39;20277;-59
2021/08/07 03:30:39;;;;;;;1.73;1.13;;;19.00;76.40;;;;;;1488316;39;20016;-58
2021/08/07 03:32:00;;;;;;;2.00;1.10;;;19.00;76.50;;;;;;1489755;39;20035;-59
2021/08/07 03:33:20;;;;;;;1.67;1.10;;;19.00;76.50;;;;;;1489263;39;20338;-59
2021/08/07 03:34:42;;;;;;;2.30;1.42;;;19.00;76.50;;;;;;1489884;39;20089;-58
2021/08/07 03:36:03;;;;;;;4.25;1.13;;;19.00;76.40;;;;;;1490549;39;20071;-59
2021/08/07 03:37:24;;;;;;;2.53;0.98;;;19.00;76.50;;;;;;1491588;39;20349;-59
2021/08/07 03:38:44;;;;;;;2.10;1.27;;;19.00;76.40;;;;;;1489325;39;20024;-59
2021/08/07 03:40:06;;;;;;;1.88;0.90;;;19.00;76.30;;;;;;1490021;39;20031;-58
2021/08/07 03:41:27;;;;;;;3.22;0.90;;;19.00;76.40;;;;;;1493211;39;20027;-58
2021/08/07 03:42:48;;;;;;;1.27;0.93;;;19.00;76.40;;;;;;1488520;39;20031;-58
2021/08/07 03:44:09;;;;;;;1.83;1.08;;;19.00;76.50;;;;;;1492568;39;20032;-59
2021/08/07 03:45:30;;;;;;;1.42;1.08;;;19.00;76.50;;;;;;1489223;39;20035;-59
2021/08/07 03:46:51;;;;;;;1.30;1.15;;;19.00;76.60;;;;;;1490722;39;20485;-59
2021/08/07 03:48:12;;;;;;;4.28;1.10;;;19.00;76.70;;;;;;1491014;39;20024;-59
2021/08/07 03:49:33;;;;;;;1.98;1.20;;;19.00;76.70;;;;;;1490260;39;20043;-59
2021/08/07 03:50:54;;;;;;;3.65;1.25;;;19.00;76.70;;;;;;1490893;39;20234;-59
2021/08/07 03:52:15;;;;;;;2.53;1.50;;;19.00;76.80;;;;;;1488153;39;20037;-58
2021/08/07 03:53:36;;;;;;;4.35;1.40;;;19.00;76.80;;;;;;1490208;39;20020;-59
2021/08/07 03:54:56;;;;;;;3.85;1.30;;;19.00;76.70;;;;;;1489227;39;20032;-59
2021/08/07 03:56:17;;;;;;;4.82;1.48;;;19.00;76.60;;;;;;1492248;39;20019;-59
2021/08/07 03:58:00;;;;;;;2.85;1.35;;;19.00;76.60;;;;;;1488427;39;20028;-59
2021/08/07 03:59:21;;;;;;;1.00;1.00;;;19.00;76.90;;;;;;1490750;39;20044;-58
2021/08/07 04:00:42;;;;;;;6.65;1.20;;;19.00;76.50;;;;;;1488440;39;20024;-58
2021/08/07 04:02:03;;;;;;;1.85;1.20;;;19.00;76.60;;;;;;1491291;39;20034;-58
2021/08/07 04:03:24;;;;;;;3.90;1.42;;;19.00;76.80;;;;;;1491641;39;20032;-58
2021/08/07 04:04:45;;;;;;;2.25;1.05;;;19.00;76.90;;;;;;1490585;39;20032;-58
2021/08/07 04:06:06;;;;;;;1.67;1.10;;;19.00;77.00;;;;;;1491732;39;20067;-59
2021/08/07 04:07:27;;;;;;;3.70;1.20;;;19.00;77.10;;;;;;1491868;39;20275;-59
2021/08/07 04:08:48;;;;;;;2.47;1.08;;;19.00;77.20;;;;;;1488128;39;20028;-58
2021/08/07 04:10:09;;;;;;;1.30;1.15;;;19.00;77.20;;;;;;1490157;39;20127;-59
2021/08/07 04:11:31;;;;;;;1.98;1.20;;;19.00;77.30;;;;;;1492369;39;20160;-59
2021/08/07 04:12:52;;;;;;;1.92;1.17;;;19.00;77.40;;;;;;1489694;39;20108;-59
2021/08/07 04:14:13;;;;;;;2.67;1.40;;;19.00;77.40;;;;;;1486665;40;20043;-59
2021/08/07 04:15:35;;;;;;;3.13;1.30;;;19.00;77.50;;;;;;1490027;39;20110;-59
2021/08/07 04:16:56;;;;;;;2.50;1.40;;;19.00;77.40;;;;;;1489437;39;20046;-59
2021/08/07 04:18:17;;;;;;;4.10;1.50;;;19.00;77.40;;;;;;1490967;39;20024;-59
2021/08/07 04:19:37;;;;;;;2.47;1.60;;;19.00;77.40;;;;;;1489823;39;20027;-59
2021/08/07 04:20:58;;;;;;;3.20;1.50;;;19.10;77.50;;;;;;1490618;39;20104;-59
2021/08/07 04:22:19;;;;;;;2.83;1.27;;;19.10;77.50;;;;;;1491474;39;20035;-59
2021/08/07 04:23:40;;;;;;;1.83;1.20;;;19.10;77.40;;;;;;1488276;39;20050;-59
2021/08/07 04:25:01;;;;;;;5.57;1.58;;;19.10;77.30;;;;;;1490802;39;20067;-58
2021/08/07 04:26:22;;;;;;;1.77;1.10;;;19.10;77.40;;;;;;1489346;39;20035;-59
2021/08/07 04:27:43;;;;;;;3.70;1.63;;;19.10;77.50;;;;;;1492487;39;20031;-59
2021/08/07 04:29:04;;;;;;;4.63;1.55;;;19.10;77.40;;;;;;1491977;39;20036;-58
2021/08/07 04:30:25;;;;;;;4.53;1.20;;;19.10;77.40;;;;;;1489334;39;20024;-59
2021/08/07 04:31:46;;;;;;;2.20;1.02;;;19.10;77.30;;;;;;1490227;39;20024;-58
2021/08/07 04:33:08;;;;;;;5.90;1.50;;;19.20;77.30;;;;;;1488427;39;20032;-58
2021/08/07 04:34:29;;;;;;;4.63;1.42;;;19.10;77.20;;;;;;1489926;39;20242;-59
2021/08/07 04:35:50;;;;;;;8.68;1.55;;;19.20;77.20;;;;;;1489938;39;20027;-59
2021/08/07 04:37:12;;;;;;;3.65;1.30;;;19.10;77.10;;;;;;1491328;39;20124;-58
2021/08/07 04:38:33;;;;;;;6.38;1.77;;;19.20;77.10;;;;;;1491000;39;20269;-59
2021/08/07 04:39:54;;;;;;;3.67;1.50;;;19.20;77.10;;;;;;1489906;39;20028;-59
2021/08/07 04:41:15;;;;;;;1.58;1.20;;;19.20;77.10;;;;;;1490311;39;20028;-59
2021/08/07 04:42:36;;;;;;;3.03;1.63;;;19.20;76.90;;;;;;1491186;39;20011;-59
2021/08/07 04:43:57;;;;;;;1.75;1.48;;;19.20;76.90;;;;;;1489589;39;20420;-58
2021/08/07 04:45:19;;;;;;;1.38;1.27;;;19.20;76.90;;;;;;1491642;39;20145;-59
2021/08/07 04:46:39;;;;;;;3.17;1.30;;;19.20;76.80;;;;;;1488056;39;20033;-59
2021/08/07 04:48:05;;;;;;;1.45;1.20;;;19.20;76.70;;;;;;1489658;39;20424;-59
2021/08/07 04:49:26;;;;;;;4.03;1.58;;;19.20;76.80;;;;;;1490455;39;20046;-59
2021/08/07 04:50:47;;;;;;;2.35;1.30;;;19.20;76.80;;;;;;1491777;39;20045;-57
2021/08/07 04:52:08;;;;;;;2.40;1.40;;;19.20;76.70;;;;;;1491529;39;20080;-59
2021/08/07 04:53:29;;;;;;;4.78;1.25;;;19.20;76.60;;;;;;1489309;39;20036;-59
2021/08/07 04:54:50;;;;;;;3.40;1.38;;;19.20;76.60;;;;;;1489623;39;20567;-59
2021/08/07 04:56:10;;;;;;;1.52;1.17;;;19.20;76.60;;;;;;1490562;39;20035;-59
2021/08/07 04:57:31;;;;;;;2.80;1.50;;;19.20;76.60;;;;;;1490208;39;20027;-59
2021/08/07 04:58:52;;;;;;;2.13;1.50;;;19.20;76.50;;;;;;1488356;39;20278;-58
2021/08/07 05:00:14;;;;;;;1.45;1.35;;;19.20;76.60;;;;;;1489624;39;20076;-59
2021/08/07 05:01:35;;;;;;;1.83;1.40;;;19.20;76.60;;;;;;1490721;39;20367;-59
2021/08/07 05:02:56;;;;;;;3.03;1.17;;;19.20;76.60;;;;;;1488934;39;20024;-59
2021/08/07 05:04:17;;;;;;;1.80;1.10;;;19.20;76.60;;;;;;1491134;39;20074;-59
2021/08/07 05:05:37;;;;;;;2.70;1.20;;;19.20;76.60;;;;;;1488478;39;20039;-59
2021/08/07 05:06:58;;;;;;;2.15;1.10;;;19.20;76.50;;;;;;1491279;39;20432;-59
2021/08/07 05:08:19;;;;;;;2.92;1.40;;;19.20;76.70;;;;;;1489196;39;20040;-59
2021/08/07 05:09:40;;;;;;;3.05;1.38;;;19.20;76.70;;;;;;1488494;39;20369;-59
2021/08/07 05:11:01;;;;;;;2.75;1.40;;;19.20;76.60;;;;;;1489732;39;20043;-59
2021/08/07 05:12:23;;;;;;;1.65;1.20;;;19.20;76.60;;;;;;1490948;39;20051;-59
2021/08/07 05:13:44;;;;;;;2.63;1.10;;;19.30;76.70;;;;;;1490189;39;20095;-59
2021/08/07 05:15:05;;;;;;;3.00;1.20;;;19.20;76.60;;;;;;1488297;39;20043;-59
2021/08/07 05:16:26;;;;;;;1.45;1.17;;;19.30;77.40;;;;;;1488751;39;20025;-59
2021/08/07 05:17:47;;;;;;;3.92;1.17;;;19.30;76.70;;;;;;1489361;39;20027;-58
2021/08/07 05:19:08;;;;;;;0.98;0.98;;;19.30;76.70;;;;;;1489910;39;20361;-59
2021/08/07 05:20:29;;;;;;;2.47;1.30;;;19.30;76.60;;;;;;1491413;39;20020;-59
2021/08/07 05:21:50;;;;;;;2.05;1.38;;;19.30;76.70;;;;;;1489177;39;20058;-58
2021/08/07 05:23:11;;;;;;;3.30;1.00;;;19.30;76.70;;;;;;1491700;39;20039;-59
2021/08/07 05:24:32;;;;;;;3.10;1.10;;;19.30;76.60;;;;;;1489240;39;20040;-59
2021/08/07 05:25:52;;;;;;;1.77;0.93;;;19.30;76.70;;;;;;1490944;39;20027;-59
2021/08/07 05:27:13;;;;;;;4.03;1.38;;;19.30;76.70;;;;;;1491302;39;20046;-59
2021/08/07 05:28:34;;;;;;;3.80;1.35;;;19.30;76.80;;;;;;1489208;39;20051;-59
2021/08/07 05:29:55;;;;;;;2.10;1.27;;;19.30;76.80;;;;;;1490356;39;20043;-59
2021/08/07 05:31:16;;;;;;;2.70;1.05;;;19.40;76.80;;;;;;1490507;39;20053;-59
2021/08/07 05:32:37;;;;;;;3.25;1.02;;;19.40;76.80;;;;;;1491224;39;20037;-59
2021/08/07 05:33:58;;;;;;;2.03;1.20;;;19.40;76.80;;;;;;1488394;39;20040;-59
2021/08/07 05:35:19;;;;;;;4.18;1.23;;;19.40;76.80;;;;;;1488716;39;20036;-59
2021/08/07 05:36:40;;;;;;;2.45;1.30;;;19.40;76.70;;;;;;1489817;39;20278;-59
2021/08/07 05:38:00;;;;;;;4.97;1.30;;;19.40;76.70;;;;;;1490704;39;20081;-59
2021/08/07 05:39:22;;;;;;;3.72;1.50;;;19.40;76.60;;;;;;1488861;39;20024;-59
2021/08/07 05:40:43;;;;;;;2.45;1.25;;;19.40;77.30;;;;;;1488996;39;20035;-59
2021/08/07 05:42:04;;;;;;;1.98;1.20;;;19.40;76.50;;;;;;1488578;39;20253;-59
2021/08/07 05:43:25;;;;;;;3.58;1.38;;;19.50;76.60;;;;;;1490491;39;20023;-59
2021/08/07 05:44:45;;;;;;;4.43;1.38;;;19.40;76.60;;;;;;1485839;39;20429;-59
2021/08/07 05:46:06;;;;;;;2.50;1.27;;;19.50;76.60;;;;;;1489120;39;20497;-59
2021/08/07 05:47:27;;;;;;;2.95;1.63;;;19.50;76.60;;;;;;1492279;39;20026;-59
2021/08/07 05:48:54;;;;;;;4.53;1.30;;;19.50;76.80;;;;;;1489494;39;20027;-59
2021/08/07 05:50:14;;;;;;;2.72;1.10;;;19.50;76.90;;;;;;1490955;39;20047;-59
2021/08/07 05:51:35;;;;;;;3.83;1.38;;;19.50;77.00;;;;;;1488971;39;20009;-59
2021/08/07 05:52:56;;;;;;;1.75;1.05;;;19.50;77.00;;;;;;1490423;39;20128;-59
2021/08/07 05:54:20;;;;;;;2.78;1.20;;;19.60;77.00;;;;;;1490039;39;20068;-59
2021/08/07 05:55:41;;;;;;;2.05;1.40;;;19.60;76.90;;;;;;1489438;39;20074;-59
2021/08/07 05:57:02;;;;;;;7.03;1.80;;;19.60;77.10;;;;;;1492111;39;20031;-59
2021/08/07 05:58:23;;;;;;;2.92;1.20;;;19.60;77.20;;;;;;1490212;39;20023;-59
2021/08/07 05:59:44;;;;;;;2.85;1.38;;;19.60;77.30;;;;;;1488741;39;20549;-58
2021/08/07 06:01:06;;;;;;;3.83;1.30;;;19.70;77.50;;;;;;1489427;39;20044;-59
2021/08/07 06:02:32;;;;;;;1.90;1.30;;;19.70;77.50;;;;;;1489938;39;20072;-59
2021/08/07 06:03:53;;;;;;;1.20;1.10;;;19.70;77.60;;;;;;1490845;39;20137;-59
2021/08/07 06:05:14;;;;;;;1.88;1.63;;;19.80;77.80;;;;;;1491062;39;20441;-59
2021/08/07 06:06:35;;;;;;;2.83;1.33;;;19.80;77.70;;;;;;1488299;39;20020;-59
2021/08/07 06:07:55;;;;;;;1.92;1.60;;;19.80;77.60;;;;;;1489049;39;20076;-59
2021/08/07 06:09:16;;;;;;;2.95;1.42;;;19.90;77.60;;;;;;1491386;39;20032;-59
2021/08/07 06:10:37;;;;;;;2.25;1.42;;;19.90;77.50;;;;;;1489766;39;20034;-59
2021/08/07 06:11:58;;;;;;;1.75;1.48;;;19.90;77.40;;;;;;1490738;39;20028;-59
2021/08/07 06:13:19;;;;;;;3.13;1.77;;;19.90;77.30;;;;;;1491242;39;20043;-59
2021/08/07 06:14:40;;;;;;;3.45;1.48;;;19.90;77.20;;;;;;1488458;39;20049;-58
2021/08/07 06:16:02;;;;;;;1.55;1.15;;;20.00;77.30;;;;;;1491446;39;20042;-59
2021/08/07 06:17:22;;;;;;;2.97;1.20;;;20.00;77.20;;;;;;1491787;39;20032;-59
2021/08/07 06:18:43;;;;;;;4.03;1.67;;;20.00;77.20;;;;;;1488797;39;20032;-59
2021/08/07 06:20:07;;;;;;;2.72;1.60;;;20.10;77.20;;;;;;1489136;39;20040;-59
2021/08/07 06:21:28;;;;;;;2.65;1.48;;;20.10;77.20;;;;;;1490221;39;20032;-59
2021/08/07 06:22:49;;;;;;;2.10;1.40;;;20.10;76.90;;;;;;1490579;39;20043;-59
2021/08/07 06:24:10;;;;;;;3.17;1.30;;;20.10;77.60;;;;;;1491268;39;20039;-59
2021/08/07 06:25:31;;;;;;;3.58;1.30;;;20.10;76.80;;;;;;1491076;39;20031;-59
2021/08/07 06:26:52;;;;;;;1.38;1.13;;;20.10;76.80;;;;;;1488963;39;20024;-59
2021/08/07 06:28:13;;;;;;;3.00;1.15;;;20.20;76.90;;;;;;1490394;39;20583;-59
2021/08/07 06:29:34;;;;;;;6.43;1.65;;;20.20;76.80;;;;;;1490696;39;20083;-59
2021/08/07 06:30:55;;;;;;;2.20;1.17;;;20.20;76.70;;;;;;1488380;39;20036;-59
2021/08/07 06:32:16;;;;;;;2.40;1.33;;;20.20;76.80;;;;;;1490997;39;20563;-59
2021/08/07 06:33:39;;;;;;;1.52;1.20;;;20.30;77.20;;;;;;1491425;39;20016;-59
2021/08/07 06:35:00;;;;;;;3.60;1.38;;;20.30;77.20;;;;;;1490311;39;20476;-59
2021/08/07 06:36:21;;;;;;;1.35;1.02;;;20.30;77.10;;;;;;1491590;39;20027;-59
2021/08/07 06:37:42;;;;;;;1.50;1.40;;;20.30;77.20;;;;;;1488637;39;20297;-59
2021/08/07 06:39:03;;;;;;;3.83;1.20;;;20.30;77.10;;;;;;1488855;39;20026;-59
2021/08/07 06:40:24;;;;;;;2.58;1.30;;;20.40;76.80;;;;;;1490898;39;20024;-59
2021/08/07 06:41:45;;;;;;;1.55;1.30;;;20.40;76.80;;;;;;1488740;39;20026;-59
2021/08/07 06:43:06;;;;;;;2.58;1.50;;;20.40;76.60;;;;;;1489652;39;20357;-59
2021/08/07 06:44:27;;;;;;;2.20;1.60;;;20.50;76.30;;;;;;1489690;39;20031;-59
2021/08/07 06:45:48;;;;;;;3.83;1.27;;;20.50;76.10;;;;;;1490485;39;20027;-59
2021/08/07 06:47:09;;;;;;;3.95;1.35;;;20.50;76.10;;;;;;1490578;39;20043;-59
2021/08/07 06:48:30;;;;;;;5.35;1.83;;;20.50;76.20;;;;;;1490440;39;20381;-59
2021/08/07 06:49:51;;;;;;;3.97;1.10;;;20.50;76.30;;;;;;1489260;39;20276;-59
2021/08/07 06:51:11;;;;;;;1.98;1.17;;;20.60;76.30;;;;;;1490542;39;20028;-59
2021/08/07 06:52:34;;;;;;;5.10;1.23;;;20.60;76.30;;;;;;1490534;39;20024;-59
2021/08/07 06:53:55;;;;;;;3.58;1.40;;;20.60;76.00;;;;;;1489400;39;20076;-59
2021/08/07 06:55:16;;;;;;;2.47;1.35;;;20.60;75.80;;;;;;1491454;39;20442;-59
2021/08/07 06:56:37;;;;;;;2.78;1.40;;;20.70;75.80;;;;;;1490240;39;20347;-59
2021/08/07 06:57:58;;;;;;;2.70;1.48;;;20.70;75.80;;;;;;1490653;39;20023;-59
2021/08/07 06:59:19;;;;;;;3.92;1.50;;;20.70;76.10;;;;;;1489784;39;20035;-58
2021/08/07 07:00:40;;;;;;;2.42;1.40;;;20.70;75.90;;;;;;1490430;39;20046;-59
2021/08/07 07:02:01;;;;;;;2.50;1.15;;;20.80;75.80;;;;;;1487922;39;20031;-59
2021/08/07 07:03:22;;;;;;;2.20;1.27;;;20.80;75.60;;;;;;1491695;39;20027;-59
2021/08/07 07:04:43;;;;;;;3.80;1.50;;;20.80;75.40;;;;;;1489082;39;20090;-59
2021/08/07 07:06:05;;;;;;;2.05;1.30;;;20.80;75.10;;;;;;1491887;39;20034;-59
2021/08/07 07:07:26;;;;;;;2.33;0.90;;;20.80;75.10;;;;;;1491695;39;20111;-59
2021/08/07 07:08:46;;;;;;;3.58;1.35;;;20.90;75.40;;;;;;1489208;39;20059;-59